»·PEaware :: UAL228 KSFO-KSAN

UAL228 :: KSFO-KSAN

FLIGHT INFORMATION

Flight Status: Arrived
Operator:
United Airlines
More flights by this operator :: More flights under this callsign
Pilot: Isaac R. (8401)
Aircraft: BEECH AIRCRAFT DUKE
(BE60)
More flights by this aircraft type
Origin: KSFO San Francisco Intl
United States
Destination: KSAN San Diego Intl-Lindbergh
United States
More flights between these airports :: More routes between these airports
Route: +OFFSH2 MCKEY LAX COMIX2
File this flight plan on PilotEdge
Remarks:
Altitude:
(Current/Filed)
35,000ft
Speed:
(Current/Filed)
450kts
Departed: 08-Feb-20 02:51 PM
Arrived: 08-Feb-20 04:02 PM
Distance/Time
Traveled:
387nm/1:10
Distance/Time
To Go:
Arrived

Flight Plot

Page will automatically refresh every two minutes.

Flight plan parsing failed; only flown route is shown


Map Options




Map Legend


Flown Route
Filed Route
Departure Airport
Arrival Airport
Navaid (VOR, NDB)
Fix

Horizontal Profiles

Position Reports

Time Latitude Longitude Heading Altitude Ground
Speed
08-Feb-20 14:13 37.619531 -122.384841 114 27ft 0kts
08-Feb-20 14:14 37.619531 -122.384841 114 27ft 0kts
08-Feb-20 14:15 37.619531 -122.384841 114 27ft 0kts
08-Feb-20 14:16 37.619531 -122.384841 114 27ft 0kts
08-Feb-20 14:17 37.619531 -122.384841 114 27ft 0kts
08-Feb-20 14:18 37.619531 -122.384841 114 27ft 0kts
08-Feb-20 14:19 37.619531 -122.384841 114 27ft 0kts
08-Feb-20 14:20 37.619531 -122.384841 114 27ft 0kts
08-Feb-20 14:21 37.619531 -122.384841 114 27ft 0kts
08-Feb-20 14:22 37.619531 -122.384841 114 27ft 0kts
08-Feb-20 14:23 37.619531 -122.384841 114 27ft 0kts
08-Feb-20 14:24 37.619531 -122.384841 114 27ft 0kts
08-Feb-20 14:25 37.619531 -122.384841 114 27ft 0kts
08-Feb-20 14:26 37.619531 -122.384841 114 27ft 0kts
08-Feb-20 14:27 37.619531 -122.384841 114 27ft 0kts
08-Feb-20 14:28 37.619531 -122.384841 114 27ft 0kts
08-Feb-20 14:29 37.619531 -122.384841 114 27ft 0kts
08-Feb-20 14:30 37.619531 -122.384841 114 27ft 0kts
08-Feb-20 14:31 37.619531 -122.384841 114 27ft 0kts
08-Feb-20 14:32 37.619531 -122.384841 114 27ft 0kts
08-Feb-20 14:33 37.619531 -122.384841 114 27ft 0kts
08-Feb-20 14:34 37.619531 -122.384841 114 27ft 0kts
08-Feb-20 14:35 37.619531 -122.384841 114 27ft 0kts
08-Feb-20 14:36 37.619531 -122.384841 114 27ft 0kts
08-Feb-20 14:37 37.619531 -122.384841 114 27ft 0kts
08-Feb-20 14:38 37.619531 -122.384841 114 27ft 0kts
08-Feb-20 14:39 37.619531 -122.384841 114 27ft 0kts
08-Feb-20 14:40 37.619531 -122.384841 114 27ft 0kts
08-Feb-20 14:41 37.619723 -122.385509 55 27ft 2kts
08-Feb-20 14:42 37.619527 -122.385674 27 27ft 0kts
08-Feb-20 14:43 37.619527 -122.385674 27 27ft 0kts
08-Feb-20 14:44 37.619528 -122.385674 27 27ft 0kts
08-Feb-20 14:45 37.620306 -122.383535 118 27ft 17kts
08-Feb-20 14:46 37.617743 -122.378614 169 27ft 13kts
08-Feb-20 14:47 37.614563 -122.380085 207 27ft 14kts
08-Feb-20 14:48 37.610333 -122.382906 207 27ft 19kts
08-Feb-20 14:49 37.608782 -122.382321 23 27ft 3kts
08-Feb-20 14:50 37.632551 -122.366470 26 222ft 158kts
08-Feb-20 14:51 37.675512 -122.364652 358 1970ft 178kts
08-Feb-20 14:52 37.727733 -122.390324 302 3746ft 245kts
08-Feb-20 14:53 37.713639 -122.470780 215 7392ft 277kts
08-Feb-20 14:54 37.638344 -122.496315 233 10453ft 299kts
08-Feb-20 14:55 37.604180 -122.598249 246 12918ft 328kts
08-Feb-20 14:56 37.550574 -122.694739 219 15552ft 353kts
08-Feb-20 14:57 37.449866 -122.697457 172 17983ft 385kts
08-Feb-20 14:58 37.342776 -122.670935 172 20097ft 396kts
08-Feb-20 14:59 37.233481 -122.642617 172 21869ft 407kts
08-Feb-20 15:00 37.121537 -122.613358 172 23460ft 416kts
08-Feb-20 15:01 37.006548 -122.583289 172 25001ft 426kts
08-Feb-20 15:02 36.889292 -122.552787 172 26409ft 435kts
08-Feb-20 15:03 36.769754 -122.521769 172 27681ft 443kts
08-Feb-20 15:04 36.647811 -122.490157 171 28853ft 450kts
08-Feb-20 15:05 36.524489 -122.458266 171 29924ft 456kts
08-Feb-20 15:06 36.406264 -122.400524 138 30912ft 474kts
08-Feb-20 15:07 36.318626 -122.276763 131 31888ft 481kts
08-Feb-20 15:08 36.230838 -122.150322 131 32732ft 487kts
08-Feb-20 15:09 36.142034 -122.022031 131 33713ft 489kts
08-Feb-20 15:10 36.053561 -121.894217 131 34709ft 491kts
08-Feb-20 15:11 35.964640 -121.765966 131 34990ft 490kts
08-Feb-20 15:12 35.875661 -121.637970 131 34983ft 490kts
08-Feb-20 15:13 35.787099 -121.510958 132 34969ft 489kts
08-Feb-20 15:14 35.698204 -121.383902 132 34946ft 488kts
08-Feb-20 15:15 35.609584 -121.257689 132 34926ft 488kts
08-Feb-20 15:16 35.520901 -121.131842 132 34921ft 487kts
08-Feb-20 15:17 35.437150 -121.000850 126 34918ft 488kts
08-Feb-20 15:18 35.359846 -120.864439 126 34915ft 487kts
08-Feb-20 15:19 35.282692 -120.728352 126 34911ft 487kts
08-Feb-20 15:20 35.205200 -120.592143 126 34909ft 486kts
08-Feb-20 15:21 35.127958 -120.456924 126 34916ft 485kts
08-Feb-20 15:22 35.050376 -120.321659 126 34922ft 485kts
08-Feb-20 15:23 34.973001 -120.187289 126 34922ft 484kts
08-Feb-20 15:24 34.895638 -120.053457 126 34917ft 483kts
08-Feb-20 15:25 34.818006 -119.919657 127 34911ft 482kts
08-Feb-20 15:26 34.740586 -119.786774 127 34912ft 482kts
08-Feb-20 15:27 34.663080 -119.654221 127 34908ft 481kts
08-Feb-20 15:28 34.585364 -119.521812 127 34910ft 479kts
08-Feb-20 15:29 34.507846 -119.390227 127 34912ft 480kts
08-Feb-20 15:30 34.429827 -119.258287 127 34914ft 480kts
08-Feb-20 15:31 34.351972 -119.127105 127 34907ft 480kts
08-Feb-20 15:32 34.273934 -118.996105 127 34900ft 481kts
08-Feb-20 15:33 34.195465 -118.864858 127 34823ft 480kts
08-Feb-20 15:34 34.117829 -118.735474 128 33847ft 475kts
08-Feb-20 15:35 34.041504 -118.608719 128 31758ft 454kts
08-Feb-20 15:36 33.968910 -118.488674 128 29900ft 431kts
08-Feb-20 15:37 33.894692 -118.380432 135 28131ft 413kts
08-Feb-20 15:38 33.816921 -118.280848 135 26410ft 402kts
08-Feb-20 15:39 33.741733 -118.183393 133 24751ft 393kts
08-Feb-20 15:40 33.668826 -118.087768 133 23147ft 384kts
08-Feb-20 15:41 33.597455 -117.994252 133 21598ft 373kts
08-Feb-20 15:42 33.526495 -117.905106 137 20106ft 365kts
08-Feb-20 15:43 33.454119 -117.821249 138 18653ft 357kts
08-Feb-20 15:44 33.381544 -117.742542 140 17251ft 347kts
08-Feb-20 15:45 33.310119 -117.666257 140 15941ft 342kts
08-Feb-20 15:46 33.238708 -117.590363 140 14847ft 351kts
08-Feb-20 15:47 33.165813 -117.513621 139 13618ft 346kts
08-Feb-20 15:48 33.090370 -117.444490 146 12358ft 339kts
08-Feb-20 15:49 33.016005 -117.382398 146 11446ft 309kts
08-Feb-20 15:50 32.946972 -117.324555 146 10130ft 298kts
08-Feb-20 15:51 32.882350 -117.270661 146 9385ft 272kts
08-Feb-20 15:52 32.821894 -117.219266 136 7764ft 262kts
08-Feb-20 15:53 32.796147 -117.139380 106 6636ft 261kts
08-Feb-20 15:55 32.777938 -117.060519 107 5898ft 239kts
08-Feb-20 15:56 32.759797 -116.986488 110 5209ft 232kts
08-Feb-20 15:57 32.708086 -116.961810 209 4044ft 222kts
08-Feb-20 15:58 32.694676 -117.024567 283 2988ft 207kts
08-Feb-20 15:59 32.708190 -117.084226 285 1923ft 166kts
08-Feb-20 16:00 32.719126 -117.129712 286 1113ft 137kts
08-Feb-20 16:01 32.729418 -117.172419 286 235ft 136kts
08-Feb-20 16:02 32.735173 -117.196329 285 29ft 20kts
08-Feb-20 16:03 32.734892 -117.199281 268 29ft 0kts
08-Feb-20 16:04 32.734892 -117.199282 268 29ft 0kts
08-Feb-20 16:05 32.734902 -117.199392 281 29ft 5kts
08-Feb-20 16:06 32.734533 -117.202588 195 29ft 8kts
08-Feb-20 16:07 32.734184 -117.203404 266 29ft 0kts
08-Feb-20 16:08 32.734184 -117.203404 266 29ft 0kts
08-Feb-20 16:09 32.734184 -117.203404 266 29ft 0kts
08-Feb-20 16:10 32.734184 -117.203404 266 29ft 0kts
08-Feb-20 16:10 32.734184 -117.203404 266 29ft 0kts
08-Feb-20 16:12 32.734184 -117.203404 266 29ft 0kts
08-Feb-20 16:13 32.734184 -117.203404 266 29ft 0kts
08-Feb-20 16:13 32.734184 -117.203404 266 29ft 0kts
08-Feb-20 16:15 32.734184 -117.203404 266 29ft 0kts
08-Feb-20 16:16 32.734184 -117.203404 266 29ft 0kts

Navigation Log

Ident Type
Flight plan parsing failed, navigation log unavailable